Time;durP1;ratioP1;P1;durP2;ratioP2;P2;SDS_P1;SDS_P2;PMS_P1;PMS_P2;Temp;Humidity;BMP_temperature;BMP_pressure;BME280_temperature;BME280_humidity;BME280_pressure;Samples;Min_cycle;Max_cycle;Signal;HPM_P1;HPM_P2
2024/02/26 00:24:37;;;;;;;34.50;22.47;;;3.20;99.90;;;;;;4622395;30;20227;-83
2024/02/26 00:28:57;;;;;;;37.63;22.20;;;3.30;99.90;;;;;;4598143;30;20376;-84
2024/02/26 00:44:55;;;;;;;37.27;21.47;;;3.50;99.90;;;;;;4578222;30;20315;-84
2024/02/26 01:35:21;;;;;;;36.37;22.10;;;2.70;99.90;;;;;;4639693;30;20283;-84
2024/02/26 01:50:51;;;;;;;40.37;22.93;;;2.30;99.90;;;;;;4674586;29;20232;-83
2024/02/26 01:55:10;;;;;;;37.37;23.07;;;2.50;99.90;;;;;;4644091;29;20594;-83
2024/02/26 02:26:12;;;;;;;34.07;21.23;;;2.20;99.90;;;;;;4703864;29;20210;-83
2024/02/26 02:51:44;;;;;;;50.27;28.27;;;1.90;99.90;;;;;;4734543;29;20353;-83
2024/02/26 03:21:52;;;;;;;48.27;27.90;;;1.80;99.90;;;;;;4639638;30;20196;-85
2024/02/26 03:57:31;;;;;;;222.50;109.50;;;1.80;99.90;;;;;;4687665;29;20198;-83
2024/02/26 04:22:55;;;;;;;66.63;37.37;;;1.50;99.90;;;;;;4673404;29;20282;-84
2024/02/26 04:52:45;;;;;;;465.17;117.20;;;1.60;99.90;;;;;;4575129;30;21017;-84
2024/02/26 05:33:48;;;;;;;146.67;42.23;;;2.30;99.90;;;;;;4576961;30;20227;-86
2024/02/26 05:53:43;;;;;;;101.93;39.43;;;2.60;99.90;;;;;;4622290;30;20313;-86
2024/02/26 06:19:21;;;;;;;83.60;35.97;;;3.20;99.90;;;;;;4624185;30;20215;-85
2024/02/26 06:49:23;;;;;;;65.90;34.57;;;4.10;99.90;;;;;;4578913;30;20721;-85
2024/02/26 07:15:21;;;;;;;66.53;37.60;;;4.80;99.90;;;;;;4683814;29;20208;-84
2024/02/26 07:35:07;;;;;;;66.27;37.40;;;6.00;99.90;;;;;;4558443;29;20661;-84
2024/02/26 07:56:04;;;;;;;71.73;42.80;;;7.20;99.90;;;;;;4613932;29;20235;-81
2024/02/26 08:21:20;;;;;;;58.57;35.07;;;7.80;99.90;;;;;;4500577;30;20661;-82
2024/02/26 08:46:32;;;;;;;46.80;30.70;;;8.40;99.90;;;;;;4558198;30;20743;-85
2024/02/26 09:06:52;;;;;;;42.93;26.40;;;8.90;99.90;;;;;;4445184;31;21491;-84
2024/02/26 09:32:22;;;;;;;23.63;18.47;;;10.70;99.90;;;;;;4587689;30;20860;-86
2024/02/26 09:52:43;;;;;;;20.53;15.43;;;11.20;99.90;;;;;;4641300;29;20330;-85
2024/02/26 10:13:09;;;;;;;17.37;14.30;;;11.20;99.90;;;;;;4555859;30;20259;-83
2024/02/26 10:17:25;;;;;;;20.67;15.37;;;11.20;99.90;;;;;;4471923;30;20715;-81
2024/02/26 10:42:49;;;;;;;16.87;13.60;;;11.20;99.90;;;;;;4425295;30;20814;-83
2024/02/26 11:08:11;;;;;;;12.23;10.17;;;11.80;99.90;;;;;;4545061;29;20751;-82
2024/02/26 12:55:19;;;;;;;6.00;4.93;;;12.30;99.90;;;;;;4937993;28;20274;-83
2024/02/26 13:20:29;;;;;;;4.10;3.80;;;12.50;99.90;;;;;;4635953;29;20594;-82
2024/02/26 14:41:48;;;;;;;6.10;3.77;;;12.50;99.90;;;;;;4777912;28;20824;-84
2024/02/26 15:22:25;;;;;;;4.70;4.13;;;12.40;99.90;;;;;;4826532;28;20286;-82
2024/02/26 15:47:44;;;;;;;7.73;5.33;;;11.90;99.90;;;;;;4725966;29;20665;-86
2024/02/26 16:13:14;;;;;;;9.30;6.40;;;11.60;99.90;;;;;;4832025;29;20388;-84
2024/02/26 16:33:15;;;;;;;12.03;8.37;;;11.70;99.90;;;;;;4814344;29;20850;-85
2024/02/26 16:59:03;;;;;;;14.10;10.50;;;11.80;99.90;;;;;;4809340;29;20206;-84
2024/02/26 17:03:25;;;;;;;15.53;11.47;;;11.70;99.90;;;;;;4729097;29;20786;-88
2024/02/26 17:34:31;;;;;;;18.80;14.43;;;11.70;99.90;;;;;;4778639;29;22390;-85
2024/02/26 17:59:31;;;;;;;29.53;21.60;;;11.50;99.90;;;;;;4748117;29;20584;-85
2024/02/26 18:20:12;;;;;;;31.30;24.43;;;11.30;99.90;;;;;;4652540;30;20297;-84
2024/02/26 18:45:51;;;;;;;34.93;24.00;;;11.50;99.90;;;;;;4749328;29;20213;-82
2024/02/26 18:50:08;;;;;;;37.93;27.33;;;11.30;99.90;;;;;;4747424;29;20381;-86
2024/02/26 19:05:38;;;;;;;43.87;28.80;;;11.20;99.90;;;;;;4725250;29;20237;-86
2024/02/26 19:26:11;;;;;;;40.23;29.07;;;11.10;99.90;;;;;;4811728;28;20277;-83
2024/02/26 19:46:30;;;;;;;46.90;32.13;;;10.90;99.90;;;;;;4818400;29;20193;-84
2024/02/26 19:50:51;;;;;;;42.53;31.70;;;10.80;99.90;;;;;;4759422;29;20609;-87
2024/02/26 20:11:47;;;;;;;46.23;32.57;;;10.80;99.90;;;;;;4895668;28;20657;-87
2024/02/26 20:32:07;;;;;;;46.53;32.67;;;10.60;99.90;;;;;;4901636;28;20526;-86
2024/02/26 21:02:05;;;;;;;48.20;33.63;;;10.50;99.90;;;;;;4730451;29;20598;-84
2024/02/26 22:23:20;;;;;;;63.20;39.10;;;9.10;99.90;;;;;;4763608;29;20577;-85
2024/02/26 22:54:06;;;;;;;55.03;36.27;;;9.00;99.90;;;;;;4734220;29;20232;-83
2024/02/26 23:13:53;;;;;;;69.07;42.43;;;9.60;99.90;;;;;;4837230;28;20923;-86
2024/02/26 23:39:35;;;;;;;66.70;42.13;;;9.70;99.90;;;;;;4879375;28;20505;-83
